sensor_id;sensor_type;location;lat;lon;timestamp;pressure;altitude;pressure_sealevel;temperature;humidity
75692;BME280;64307;52.508;6.090;2023-01-10T00:02:02;101074.38;;;5.92;90.67
75692;BME280;64307;52.508;6.090;2023-01-10T00:04:27;101076.59;;;6.02;90.34
75692;BME280;64307;52.508;6.090;2023-01-10T00:06:54;101084.44;;;6.00;90.06
75692;BME280;64307;52.508;6.090;2023-01-10T00:09:20;101075.25;;;5.96;90.43
75692;BME280;64307;52.508;6.090;2023-01-10T00:11:46;101079.09;;;6.07;89.59
75692;BME280;64307;52.508;6.090;2023-01-10T00:14:38;101099.13;;;6.20;89.16
75692;BME280;64307;52.508;6.090;2023-01-10T00:17:03;101115.84;;;6.27;90.21
75692;BME280;64307;52.508;6.090;2023-01-10T00:19:29;101109.06;;;6.24;89.68
75692;BME280;64307;52.508;6.090;2023-01-10T00:21:56;101121.63;;;6.37;89.28
75692;BME280;64307;52.508;6.090;2023-01-10T00:24:26;101123.75;;;6.44;87.85
75692;BME280;64307;52.508;6.090;2023-01-10T00:26:52;101123.31;;;6.42;87.72
75692;BME280;64307;52.508;6.090;2023-01-10T00:31:43;101130.72;;;6.38;88.88
75692;BME280;64307;52.508;6.090;2023-01-10T00:34:09;101127.53;;;6.36;88.26
75692;BME280;64307;52.508;6.090;2023-01-10T00:36:34;101135.38;;;6.34;89.26
75692;BME280;64307;52.508;6.090;2023-01-10T00:39:00;101140.81;;;6.30;88.70
75692;BME280;64307;52.508;6.090;2023-01-10T00:41:25;101151.53;;;6.32;88.97
75692;BME280;64307;52.508;6.090;2023-01-10T00:44:09;101161.88;;;6.35;89.44
75692;BME280;64307;52.508;6.090;2023-01-10T00:46:34;101154.50;;;6.23;89.61
75692;BME280;64307;52.508;6.090;2023-01-10T00:48:59;101158.66;;;6.33;89.28
75692;BME280;64307;52.508;6.090;2023-01-10T00:51:25;101166.06;;;6.29;88.85
75692;BME280;64307;52.508;6.090;2023-01-10T00:53:50;101164.03;;;6.26;89.18
75692;BME280;64307;52.508;6.090;2023-01-10T00:56:15;101163.94;;;6.22;89.93
75692;BME280;64307;52.508;6.090;2023-01-10T00:58:41;101175.19;;;6.29;89.46
75692;BME280;64307;52.508;6.090;2023-01-10T01:01:08;101177.06;;;6.25;89.28
75692;BME280;64307;52.508;6.090;2023-01-10T01:03:34;101181.41;;;6.26;89.31
75692;BME280;64307;52.508;6.090;2023-01-10T01:06:03;101174.22;;;6.22;89.73
75692;BME280;64307;52.508;6.090;2023-01-10T01:08:29;101164.31;;;6.21;90.11
75692;BME280;64307;52.508;6.090;2023-01-10T01:10:54;101168.75;;;6.25;89.63
75692;BME280;64307;52.508;6.090;2023-01-10T01:13:20;101175.19;;;6.29;89.18
75692;BME280;64307;52.508;6.090;2023-01-10T01:15:46;101173.03;;;6.23;89.28
75692;BME280;64307;52.508;6.090;2023-01-10T01:18:12;101188.56;;;6.27;89.42
75692;BME280;64307;52.508;6.090;2023-01-10T01:20:39;101188.69;;;6.15;89.85
75692;BME280;64307;52.508;6.090;2023-01-10T01:23:05;101206.16;;;6.19;90.33
75692;BME280;64307;52.508;6.090;2023-01-10T01:25:30;101202.06;;;6.13;89.89
75692;BME280;64307;52.508;6.090;2023-01-10T01:27:56;101200.72;;;6.07;89.98
75692;BME280;64307;52.508;6.090;2023-01-10T01:30:21;101196.63;;;6.01;90.96
75692;BME280;64307;52.508;6.090;2023-01-10T01:32:46;101203.03;;;5.90;91.17
75692;BME280;64307;52.508;6.090;2023-01-10T01:35:13;101216.84;;;5.90;90.25
75692;BME280;64307;52.508;6.090;2023-01-10T01:37:40;101211.91;;;5.83;90.84
75692;BME280;64307;52.508;6.090;2023-01-10T01:40:06;101234.16;;;5.87;90.87
75692;BME280;64307;52.508;6.090;2023-01-10T01:42:33;101231.56;;;5.94;91.15
75692;BME280;64307;52.508;6.090;2023-01-10T01:48:02;101241.03;;;6.08;90.55
75692;BME280;64307;52.508;6.090;2023-01-10T01:53:07;101242.66;;;6.09;89.83
75692;BME280;64307;52.508;6.090;2023-01-10T01:55:36;101247.06;;;6.14;90.94
75692;BME280;64307;52.508;6.090;2023-01-10T01:58:05;101256.19;;;6.14;90.66
75692;BME280;64307;52.508;6.090;2023-01-10T02:00:33;101244.16;;;6.07;90.12
75692;BME280;64307;52.508;6.090;2023-01-10T02:03:00;101256.47;;;6.09;90.45
75692;BME280;64307;52.508;6.090;2023-01-10T02:05:26;101267.69;;;6.01;90.43
75692;BME280;64307;52.508;6.090;2023-01-10T02:07:54;101262.88;;;5.98;91.22
75692;BME280;64307;52.508;6.090;2023-01-10T02:10:26;101266.06;;;6.00;90.52
75692;BME280;64307;52.508;6.090;2023-01-10T02:12:59;101271.81;;;6.07;91.16
75692;BME280;64307;52.508;6.090;2023-01-10T02:15:26;101261.44;;;6.04;91.08
75692;BME280;64307;52.508;6.090;2023-01-10T02:17:51;101257.78;;;6.00;91.33
75692;BME280;64307;52.508;6.090;2023-01-10T02:20:18;101267.69;;;6.01;91.03
75692;BME280;64307;52.508;6.090;2023-01-10T02:37:33;101291.75;;;6.16;94.65
75692;BME280;64307;52.508;6.090;2023-01-10T02:40:20;101298.56;;;6.18;94.56
75692;BME280;64307;52.508;6.090;2023-01-10T02:45:37;101293.84;;;6.19;94.81
75692;BME280;64307;52.508;6.090;2023-01-10T02:48:04;101297.03;;;6.21;94.38
75692;BME280;64307;52.508;6.090;2023-01-10T02:50:42;101302.66;;;6.24;94.08
75692;BME280;64307;52.508;6.090;2023-01-10T02:53:16;101305.69;;;6.19;94.54
75692;BME280;64307;52.508;6.090;2023-01-10T03:01:32;101296.69;;;6.22;94.48
75692;BME280;64307;52.508;6.090;2023-01-10T03:07:17;101313.38;;;6.26;94.64
75692;BME280;64307;52.508;6.090;2023-01-10T03:12:50;101317.28;;;6.25;95.01
75692;BME280;64307;52.508;6.090;2023-01-10T03:15:22;101315.59;;;6.20;94.62
75692;BME280;64307;52.508;6.090;2023-01-10T03:17:51;101300.06;;;6.16;94.64
75692;BME280;64307;52.508;6.090;2023-01-10T03:20:19;101311.56;;;6.18;95.60
75692;BME280;64307;52.508;6.090;2023-01-10T03:22:46;101326.50;;;6.29;94.41
75692;BME280;64307;52.508;6.090;2023-01-10T03:25:13;101326.41;;;6.25;94.87
75692;BME280;64307;52.508;6.090;2023-01-10T03:27:51;101316.56;;;6.12;95.41
75692;BME280;64307;52.508;6.090;2023-01-10T03:32:51;101333.19;;;6.28;94.60
75692;BME280;64307;52.508;6.090;2023-01-10T03:35:19;101343.59;;;6.34;95.08
75692;BME280;64307;52.508;6.090;2023-01-10T03:37:54;101343.53;;;6.31;94.21
75692;BME280;64307;52.508;6.090;2023-01-10T03:40:32;101339.25;;;6.33;94.24
75692;BME280;64307;52.508;6.090;2023-01-10T03:43:15;101340.84;;;6.19;95.00
75692;BME280;64307;52.508;6.090;2023-01-10T03:46:10;101353.25;;;6.25;95.13
75692;BME280;64307;52.508;6.090;2023-01-10T03:48:40;101353.69;;;6.27;94.70
75692;BME280;64307;52.508;6.090;2023-01-10T03:51:07;101350.94;;;6.27;94.75
75692;BME280;64307;52.508;6.090;2023-01-10T03:53:36;101371.47;;;6.26;95.09
75692;BME280;64307;52.508;6.090;2023-01-10T03:56:02;101365.72;;;6.19;95.02
75692;BME280;64307;52.508;6.090;2023-01-10T03:58:28;101370.66;;;6.25;95.33
75692;BME280;64307;52.508;6.090;2023-01-10T04:00:53;101371.97;;;6.16;95.52
75692;BME280;64307;52.508;6.090;2023-01-10T04:03:19;101369.41;;;6.23;95.49
75692;BME280;64307;52.508;6.090;2023-01-10T04:05:44;101378.06;;;6.21;94.88
75692;BME280;64307;52.508;6.090;2023-01-10T04:08:09;101385.28;;;6.26;94.61
75692;BME280;64307;52.508;6.090;2023-01-10T04:10:34;101389.28;;;6.28;94.62
75692;BME280;64307;52.508;6.090;2023-01-10T04:13:02;101391.72;;;6.30;94.82
75692;BME280;64307;52.508;6.090;2023-01-10T04:15:28;101397.94;;;6.27;94.93
75692;BME280;64307;52.508;6.090;2023-01-10T04:17:54;101399.28;;;6.33;95.17
75692;BME280;64307;52.508;6.090;2023-01-10T04:20:20;101404.81;;;6.33;95.47
75692;BME280;64307;52.508;6.090;2023-01-10T04:22:45;101405.19;;;6.31;94.95
75692;BME280;64307;52.508;6.090;2023-01-10T04:25:14;101398.59;;;6.36;94.74
75692;BME280;64307;52.508;6.090;2023-01-10T04:27:39;101398.84;;;6.31;94.86
75692;BME280;64307;52.508;6.090;2023-01-10T04:30:05;101403.69;;;6.34;95.26
75692;BME280;64307;52.508;6.090;2023-01-10T04:32:31;101401.25;;;6.32;94.54
75692;BME280;64307;52.508;6.090;2023-01-10T04:34:56;101411.63;;;6.35;95.71
75692;BME280;64307;52.508;6.090;2023-01-10T04:37:21;101407.06;;;6.27;95.16
75692;BME280;64307;52.508;6.090;2023-01-10T04:39:46;101409.91;;;6.31;94.81
75692;BME280;64307;52.508;6.090;2023-01-10T04:42:12;101419.81;;;6.32;95.21
75692;BME280;64307;52.508;6.090;2023-01-10T04:44:38;101417.66;;;6.25;94.82
75692;BME280;64307;52.508;6.090;2023-01-10T04:47:03;101426.13;;;6.32;95.83
75692;BME280;64307;52.508;6.090;2023-01-10T04:49:28;101426.13;;;6.32;95.37
75692;BME280;64307;52.508;6.090;2023-01-10T04:51:54;101431.66;;;6.32;95.92
75692;BME280;64307;52.508;6.090;2023-01-10T04:54:20;101420.97;;;6.31;96.00
75692;BME280;64307;52.508;6.090;2023-01-10T04:56:45;101418.94;;;6.28;95.46
75692;BME280;64307;52.508;6.090;2023-01-10T04:59:11;101440.41;;;6.34;95.61
75692;BME280;64307;52.508;6.090;2023-01-10T05:01:36;101439.53;;;6.30;95.71
75692;BME280;64307;52.508;6.090;2023-01-10T05:04:03;101420.13;;;6.15;96.29
75692;BME280;64307;52.508;6.090;2023-01-10T05:06:29;101455.13;;;6.23;96.56
75692;BME280;64307;52.508;6.090;2023-01-10T05:08:54;101462.59;;;6.22;96.40
75692;BME280;64307;52.508;6.090;2023-01-10T05:11:20;101457.69;;;6.16;96.70
75692;BME280;64307;52.508;6.090;2023-01-10T05:13:45;101448.59;;;6.15;96.50
75692;BME280;64307;52.508;6.090;2023-01-10T05:16:10;101467.09;;;6.27;96.99
75692;BME280;64307;52.508;6.090;2023-01-10T05:18:35;101449.38;;;6.16;97.11
75692;BME280;64307;52.508;6.090;2023-01-10T05:21:02;101462.81;;;6.29;95.95
75692;BME280;64307;52.508;6.090;2023-01-10T05:23:28;101469.94;;;6.30;96.64
75692;BME280;64307;52.508;6.090;2023-01-10T05:25:53;101475.84;;;6.29;96.14
75692;BME280;64307;52.508;6.090;2023-01-10T05:28:19;101465.03;;;6.24;96.75
75692;BME280;64307;52.508;6.090;2023-01-10T05:30:44;101468.34;;;6.29;96.41
75692;BME280;64307;52.508;6.090;2023-01-10T05:33:09;101474.56;;;6.26;96.58
75692;BME280;64307;52.508;6.090;2023-01-10T05:35:35;101482.63;;;6.31;96.48
75692;BME280;64307;52.508;6.090;2023-01-10T05:38:00;101481.19;;;6.22;97.19
75692;BME280;64307;52.508;6.090;2023-01-10T05:40:25;101484.72;;;6.22;97.11
75692;BME280;64307;52.508;6.090;2023-01-10T05:42:50;101471.50;;;6.16;96.65
75692;BME280;64307;52.508;6.090;2023-01-10T05:45:16;101468.66;;;6.12;97.65
75692;BME280;64307;52.508;6.090;2023-01-10T05:47:41;101465.53;;;6.14;97.03
75692;BME280;64307;52.508;6.090;2023-01-10T05:50:08;101456.78;;;6.12;97.00
75692;BME280;64307;52.508;6.090;2023-01-10T05:52:33;101475.75;;;6.25;97.30
75692;BME280;64307;52.508;6.090;2023-01-10T05:54:58;101477.16;;;6.19;97.80
75692;BME280;64307;52.508;6.090;2023-01-10T05:57:23;101499.00;;;6.24;97.47
75692;BME280;64307;52.508;6.090;2023-01-10T05:59:50;101487.06;;;6.20;97.49
75692;BME280;64307;52.508;6.090;2023-01-10T06:02:15;101503.03;;;6.27;97.04
75692;BME280;64307;52.508;6.090;2023-01-10T06:04:41;101495.16;;;6.13;97.34
75692;BME280;64307;52.508;6.090;2023-01-10T06:07:06;101511.16;;;6.20;97.36
75692;BME280;64307;52.508;6.090;2023-01-10T06:09:31;101507.34;;;6.12;97.28
75692;BME280;64307;52.508;6.090;2023-01-10T06:11:57;101501.91;;;6.16;97.04
75692;BME280;64307;52.508;6.090;2023-01-10T06:14:22;101498.25;;;6.12;97.03
75692;BME280;64307;52.508;6.090;2023-01-10T06:16:47;101515.09;;;6.07;97.39
75692;BME280;64307;52.508;6.090;2023-01-10T06:19:13;101511.88;;;6.05;98.10
75692;BME280;64307;52.508;6.090;2023-01-10T06:21:38;101525.03;;;5.96;97.97
75692;BME280;64307;52.508;6.090;2023-01-10T06:24:04;101526.06;;;5.91;98.76
75692;BME280;64307;52.508;6.090;2023-01-10T06:26:30;101547.41;;;5.91;98.24
75692;BME280;64307;52.508;6.090;2023-01-10T06:28:55;101541.88;;;5.91;98.15
75692;BME280;64307;52.508;6.090;2023-01-10T06:31:23;101542.09;;;5.86;97.48
75692;BME280;64307;52.508;6.090;2023-01-10T06:33:52;101552.94;;;5.91;98.39
75692;BME280;64307;52.508;6.090;2023-01-10T06:36:17;101548.44;;;5.74;98.08
75692;BME280;64307;52.508;6.090;2023-01-10T06:38:43;101559.59;;;5.90;98.47
75692;BME280;64307;52.508;6.090;2023-01-10T06:41:08;101566.03;;;5.94;97.63
75692;BME280;64307;52.508;6.090;2023-01-10T06:43:40;101569.50;;;5.91;98.06
75692;BME280;64307;52.508;6.090;2023-01-10T06:46:05;101579.53;;;5.95;98.09
75692;BME280;64307;52.508;6.090;2023-01-10T06:48:33;101579.41;;;5.92;97.79
75692;BME280;64307;52.508;6.090;2023-01-10T06:50:59;101571.56;;;5.94;97.45
75692;BME280;64307;52.508;6.090;2023-01-10T06:53:24;101581.84;;;5.93;97.19
75692;BME280;64307;52.508;6.090;2023-01-10T06:55:49;101568.94;;;5.85;97.35
75692;BME280;64307;52.508;6.090;2023-01-10T06:58:14;101572.84;;;5.84;97.15
75692;BME280;64307;52.508;6.090;2023-01-10T07:00:42;101568.44;;;5.71;97.40
75692;BME280;64307;52.508;6.090;2023-01-10T07:03:08;101588.50;;;5.68;97.34
75692;BME280;64307;52.508;6.090;2023-01-10T07:05:33;101579.28;;;5.64;97.42
75692;BME280;64307;52.508;6.090;2023-01-10T07:07:59;101580.31;;;5.59;97.56
75692;BME280;64307;52.508;6.090;2023-01-10T07:10:25;101594.59;;;5.61;98.18
75692;BME280;64307;52.508;6.090;2023-01-10T07:12:53;101587.13;;;5.62;97.68
75692;BME280;64307;52.508;6.090;2023-01-10T07:15:19;101588.16;;;5.57;97.76
75692;BME280;64307;52.508;6.090;2023-01-10T07:17:44;101598.50;;;5.60;97.33
75692;BME280;64307;52.508;6.090;2023-01-10T07:20:10;101597.25;;;5.58;97.47
75692;BME280;64307;52.508;6.090;2023-01-10T07:22:35;101614.84;;;5.77;97.15
75692;BME280;64307;52.508;6.090;2023-01-10T07:25:00;101605.75;;;5.77;96.55
75692;BME280;64307;52.508;6.090;2023-01-10T07:27:26;101630.53;;;5.86;97.27
75692;BME280;64307;52.508;6.090;2023-01-10T07:29:51;101614.84;;;5.77;97.18
75692;BME280;64307;52.508;6.090;2023-01-10T07:32:16;101632.00;;;5.83;96.96
75692;BME280;64307;52.508;6.090;2023-01-10T07:34:42;101622.94;;;5.82;96.95
75692;BME280;64307;52.508;6.090;2023-01-10T07:37:07;101642.31;;;5.95;96.67
75692;BME280;64307;52.508;6.090;2023-01-10T07:39:32;101637.13;;;5.93;96.67
75692;BME280;64307;52.508;6.090;2023-01-10T07:41:58;101635.59;;;5.96;97.17
75692;BME280;64307;52.508;6.090;2023-01-10T07:44:25;101640.91;;;6.01;96.52
75692;BME280;64307;52.508;6.090;2023-01-10T07:46:52;101636.53;;;6.00;95.99
75692;BME280;64307;52.508;6.090;2023-01-10T07:49:17;101646.31;;;6.09;95.28
75692;BME280;64307;52.508;6.090;2023-01-10T07:51:42;101648.50;;;6.04;96.11
75692;BME280;64307;52.508;6.090;2023-01-10T07:54:07;101644.69;;;6.08;95.39
75692;BME280;64307;52.508;6.090;2023-01-10T07:56:33;101647.94;;;6.10;96.08
75692;BME280;64307;52.508;6.090;2023-01-10T07:58:58;101664.03;;;6.20;95.65
75692;BME280;64307;52.508;6.090;2023-01-10T08:01:25;101676.25;;;6.31;95.08
75692;BME280;64307;52.508;6.090;2023-01-10T08:03:50;101677.53;;;6.34;95.85
75692;BME280;64307;52.508;6.090;2023-01-10T08:06:16;101667.41;;;6.26;94.91
75692;BME280;64307;52.508;6.090;2023-01-10T08:08:41;101671.63;;;6.35;95.20
75692;BME280;64307;52.508;6.090;2023-01-10T08:11:06;101673.38;;;6.40;94.59
75692;BME280;64307;52.508;6.090;2023-01-10T08:13:32;101671.84;;;6.42;94.75
75692;BME280;64307;52.508;6.090;2023-01-10T08:15:58;101673.38;;;6.40;94.93
75692;BME280;64307;52.508;6.090;2023-01-10T08:18:24;101684.19;;;6.45;94.98
75692;BME280;64307;52.508;6.090;2023-01-10T08:20:51;101674.06;;;6.37;95.05
75692;BME280;64307;52.508;6.090;2023-01-10T08:23:17;101679.09;;;6.47;94.66
75692;BME280;64307;52.508;6.090;2023-01-10T08:25:42;101689.50;;;6.50;94.00
75692;BME280;64307;52.508;6.090;2023-01-10T08:28:08;101674.28;;;6.44;94.75
75692;BME280;64307;52.508;6.090;2023-01-10T08:30:33;101677.72;;;6.41;94.69
75692;BME280;64307;52.508;6.090;2023-01-10T08:33:01;101679.34;;;6.54;94.96
75692;BME280;64307;52.508;6.090;2023-01-10T08:35:26;101685.88;;;6.61;94.11
75692;BME280;64307;52.508;6.090;2023-01-10T08:37:51;101682.47;;;6.52;94.77
75692;BME280;64307;52.508;6.090;2023-01-10T08:40:17;101676.22;;;6.55;94.29
75692;BME280;64307;52.508;6.090;2023-01-10T08:42:42;101695.69;;;6.71;94.21
75692;BME280;64307;52.508;6.090;2023-01-10T08:45:08;101690.91;;;6.72;93.82
75692;BME280;64307;52.508;6.090;2023-01-10T08:47:33;101693.38;;;6.73;93.71
75692;BME280;64307;52.508;6.090;2023-01-10T08:49:59;101695.06;;;6.78;93.93
75692;BME280;64307;52.508;6.090;2023-01-10T08:52:24;101683.78;;;6.71;93.48
75692;BME280;64307;52.508;6.090;2023-01-10T08:54:49;101683.88;;;6.74;94.27
75692;BME280;64307;52.508;6.090;2023-01-10T08:57:15;101685.91;;;6.89;94.15
75692;BME280;64307;52.508;6.090;2023-01-10T08:59:40;101681.28;;;6.93;93.30
75692;BME280;64307;52.508;6.090;2023-01-10T09:02:05;101690.88;;;6.96;93.45
75692;BME280;64307;52.508;6.090;2023-01-10T09:04:32;101689.16;;;6.91;93.04
75692;BME280;64307;52.508;6.090;2023-01-10T09:06:57;101693.88;;;6.91;92.90
75692;BME280;64307;52.508;6.090;2023-01-10T09:09:23;101692.09;;;6.98;93.65
75692;BME280;64307;52.508;6.090;2023-01-10T09:11:48;101684.09;;;7.09;93.12
75692;BME280;64307;52.508;6.090;2023-01-10T09:14:13;101692.94;;;7.14;93.21
75692;BME280;64307;52.508;6.090;2023-01-10T09:16:39;101675.44;;;7.10;91.91
75692;BME280;64307;52.508;6.090;2023-01-10T09:19:04;101684.09;;;7.36;91.96
75692;BME280;64307;52.508;6.090;2023-01-10T09:21:29;101683.28;;;7.52;90.52
75692;BME280;64307;52.508;6.090;2023-01-10T09:23:55;101699.53;;;7.37;90.98
75692;BME280;64307;52.508;6.090;2023-01-10T09:26:20;101697.19;;;7.24;91.13
75692;BME280;64307;52.508;6.090;2023-01-10T09:28:46;101697.59;;;7.10;91.52
75692;BME280;64307;52.508;6.090;2023-01-10T09:31:13;101697.19;;;7.24;90.83
75692;BME280;64307;52.508;6.090;2023-01-10T09:33:39;101700.66;;;7.21;90.68
75692;BME280;64307;52.508;6.090;2023-01-10T09:36:06;101684.66;;;7.14;91.37
75692;BME280;64307;52.508;6.090;2023-01-10T09:38:33;101701.03;;;7.19;91.10
75692;BME280;64307;52.508;6.090;2023-01-10T09:44:02;101688.16;;;7.27;90.67
75692;BME280;64307;52.508;6.090;2023-01-10T09:52:32;101711.97;;;7.43;88.67
75692;BME280;64307;52.508;6.090;2023-01-10T09:57:40;101695.63;;;7.38;88.67
75692;BME280;64307;52.508;6.090;2023-01-10T10:00:08;101691.16;;;7.50;88.40
75692;BME280;64307;52.508;6.090;2023-01-10T10:02:35;101686.06;;;7.52;87.30
75692;BME280;64307;52.508;6.090;2023-01-10T10:05:24;101695.28;;;7.40;88.47
75692;BME280;64307;52.508;6.090;2023-01-10T10:08:00;101690.47;;;7.53;87.60
75692;BME280;64307;52.508;6.090;2023-01-10T10:10:37;101692.34;;;7.49;87.55
75692;BME280;64307;52.508;6.090;2023-01-10T10:16:09;101696.63;;;7.46;87.96
75692;BME280;64307;52.508;6.090;2023-01-10T10:21:27;101694.44;;;7.39;88.22
75692;BME280;64307;52.508;6.090;2023-01-10T10:24:36;101685.78;;;7.41;88.11
75692;BME280;64307;52.508;6.090;2023-01-10T10:38:42;101666.94;;;7.47;88.37
75692;BME280;64307;52.508;6.090;2023-01-10T10:41:28;101662.47;;;7.42;87.56
75692;BME280;64307;52.508;6.090;2023-01-10T10:43:58;101658.34;;;7.52;88.04
75692;BME280;64307;52.508;6.090;2023-01-10T10:46:30;101649.22;;;7.35;87.78
75692;BME280;64307;52.508;6.090;2023-01-10T10:48:59;101655.13;;;7.34;88.40
75692;BME280;64307;52.508;6.090;2023-01-10T10:51:33;101647.41;;;7.27;88.36
75692;BME280;64307;52.508;6.090;2023-01-10T10:54:03;101650.13;;;7.39;87.53
75692;BME280;64307;52.508;6.090;2023-01-10T10:56:31;101658.06;;;7.41;87.91
75692;BME280;64307;52.508;6.090;2023-01-10T10:58:57;101650.66;;;7.45;88.39
75692;BME280;64307;52.508;6.090;2023-01-10T11:01:23;101631.16;;;7.41;87.91
75692;BME280;64307;52.508;6.090;2023-01-10T11:03:55;101632.59;;;7.35;88.16
75692;BME280;64307;52.508;6.090;2023-01-10T11:06:28;101648.16;;;7.40;87.95
75692;BME280;64307;52.508;6.090;2023-01-10T11:08:55;101643.16;;;7.45;89.00
75692;BME280;64307;52.508;6.090;2023-01-10T11:11:27;101635.28;;;7.47;88.12
75692;BME280;64307;52.508;6.090;2023-01-10T11:14:04;101634.38;;;7.43;87.07
75692;BME280;64307;52.508;6.090;2023-01-10T11:16:48;101635.66;;;7.30;88.89
75692;BME280;64307;52.508;6.090;2023-01-10T11:21:45;101619.28;;;7.25;87.89
75692;BME280;64307;52.508;6.090;2023-01-10T11:24:20;101614.78;;;7.21;87.64
75692;BME280;64307;52.508;6.090;2023-01-10T11:26:46;101627.66;;;7.29;88.46
75692;BME280;64307;52.508;6.090;2023-01-10T11:31:56;101618.75;;;7.35;87.89
75692;BME280;64307;52.508;6.090;2023-01-10T11:36:58;101627.38;;;7.18;88.34
75692;BME280;64307;52.508;6.090;2023-01-10T11:39:25;101618.63;;;7.16;88.74
75692;BME280;64307;52.508;6.090;2023-01-10T11:41:51;101622.78;;;7.22;87.35
75692;BME280;64307;52.508;6.090;2023-01-10T11:44:28;101626.16;;;7.31;87.09
75692;BME280;64307;52.508;6.090;2023-01-10T11:46:56;101612.75;;;7.18;87.93
75692;BME280;64307;52.508;6.090;2023-01-10T11:49:33;101620.91;;;7.26;87.77
75692;BME280;64307;52.508;6.090;2023-01-10T11:52:06;101624.38;;;7.23;88.23
75692;BME280;64307;52.508;6.090;2023-01-10T11:54:39;101614.91;;;7.24;87.25
75692;BME280;64307;52.508;6.090;2023-01-10T11:57:07;101609.69;;;7.23;87.00
75692;BME280;64307;52.508;6.090;2023-01-10T11:59:33;101617.94;;;7.19;87.04
75692;BME280;64307;52.508;6.090;2023-01-10T12:02:10;101615.84;;;7.16;87.16
75692;BME280;64307;52.508;6.090;2023-01-10T12:04:42;101609.25;;;7.21;87.65
75692;BME280;64307;52.508;6.090;2023-01-10T12:07:11;101618.13;;;7.26;86.91
75692;BME280;64307;52.508;6.090;2023-01-10T12:09:37;101613.88;;;7.17;86.58
75692;BME280;64307;52.508;6.090;2023-01-10T12:12:04;101600.50;;;7.19;87.35
75692;BME280;64307;52.508;6.090;2023-01-10T12:14:30;101600.66;;;7.10;87.89
75692;BME280;64307;52.508;6.090;2023-01-10T12:17:00;101586.81;;;7.10;86.82
75692;BME280;64307;52.508;6.090;2023-01-10T12:19:27;101591.44;;;7.06;86.74
75692;BME280;64307;52.508;6.090;2023-01-10T12:21:54;101581.78;;;7.00;87.46
75692;BME280;64307;52.508;6.090;2023-01-10T12:24:27;101575.34;;;6.96;87.79
75692;BME280;64307;52.508;6.090;2023-01-10T12:26:55;101576.16;;;6.97;86.61
75692;BME280;64307;52.508;6.090;2023-01-10T12:29:27;101573.75;;;6.95;86.69
75692;BME280;64307;52.508;6.090;2023-01-10T12:31:55;101578.41;;;6.91;86.78
75692;BME280;64307;52.508;6.090;2023-01-10T12:34:25;101563.50;;;6.96;86.87
75692;BME280;64307;52.508;6.090;2023-01-10T12:37:08;101568.38;;;6.87;86.62
75692;BME280;64307;52.508;6.090;2023-01-10T12:39:39;101565.97;;;6.85;86.31
75692;BME280;64307;52.508;6.090;2023-01-10T12:45:13;101556.56;;;6.90;86.29
75692;BME280;64307;52.508;6.090;2023-01-10T12:47:54;101546.41;;;6.94;85.96
75692;BME280;64307;52.508;6.090;2023-01-10T12:50:42;101554.16;;;6.88;86.42
75692;BME280;64307;52.508;6.090;2023-01-10T12:53:29;101552.66;;;6.91;85.73
75692;BME280;64307;52.508;6.090;2023-01-10T12:55:58;101533.66;;;6.89;86.13
75692;BME280;64307;52.508;6.090;2023-01-10T12:58:36;101541.06;;;6.85;85.93
75692;BME280;64307;52.508;6.090;2023-01-10T13:01:04;101526.47;;;6.73;86.56
75692;BME280;64307;52.508;6.090;2023-01-10T13:03:32;101535.16;;;6.87;86.23
75692;BME280;64307;52.508;6.090;2023-01-10T13:05:59;101533.19;;;6.87;85.46
75692;BME280;64307;52.508;6.090;2023-01-10T13:08:28;101528.44;;;6.88;86.66
75692;BME280;64307;52.508;6.090;2023-01-10T13:10:57;101515.69;;;6.83;86.16
75692;BME280;64307;52.508;6.090;2023-01-10T13:13:33;101519.69;;;6.86;86.33
75692;BME280;64307;52.508;6.090;2023-01-10T13:16:26;101515.41;;;6.88;86.31
75692;BME280;64307;52.508;6.090;2023-01-10T13:21:41;101502.47;;;6.77;86.65
75692;BME280;64307;52.508;6.090;2023-01-10T13:26:49;101498.63;;;6.81;86.41
75692;BME280;64307;52.508;6.090;2023-01-10T13:29:21;101499.78;;;6.80;86.23
75692;BME280;64307;52.508;6.090;2023-01-10T13:31:47;101489.34;;;6.89;86.18
75692;BME280;64307;52.508;6.090;2023-01-10T13:34:15;101473.00;;;6.84;86.29
75692;BME280;64307;52.508;6.090;2023-01-10T13:36:54;101474.06;;;6.80;87.06
75692;BME280;64307;52.508;6.090;2023-01-10T13:39:30;101470.59;;;6.83;87.12
75692;BME280;64307;52.508;6.090;2023-01-10T13:52:47;101427.34;;;6.94;86.19
75692;BME280;64307;52.508;6.090;2023-01-10T13:56:26;101426.28;;;6.98;85.87
75692;BME280;64307;52.508;6.090;2023-01-10T14:00:41;101416.38;;;6.97;85.27
75692;BME280;64307;52.508;6.090;2023-01-10T14:08:56;101404.75;;;6.92;85.17
75692;BME280;64307;52.508;6.090;2023-01-10T14:11:24;101409.22;;;6.96;85.25
75692;BME280;64307;52.508;6.090;2023-01-10T14:13:54;101398.25;;;7.00;84.89
75692;BME280;64307;52.508;6.090;2023-01-10T14:16:33;101394.47;;;6.92;85.39
75692;BME280;64307;52.508;6.090;2023-01-10T14:18:59;101393.84;;;6.99;86.06
75692;BME280;64307;52.508;6.090;2023-01-10T14:21:27;101388.94;;;6.92;86.01
75692;BME280;64307;52.508;6.090;2023-01-10T14:23:55;101381.09;;;6.94;85.67
75692;BME280;64307;52.508;6.090;2023-01-10T14:26:30;101369.94;;;6.91;85.74
75692;BME280;64307;52.508;6.090;2023-01-10T14:28:59;101375.84;;;6.89;85.99
75692;BME280;64307;52.508;6.090;2023-01-10T14:31:26;101360.13;;;6.93;85.02
75692;BME280;64307;52.508;6.090;2023-01-10T14:33:52;101361.63;;;6.91;86.09
75692;BME280;64307;52.508;6.090;2023-01-10T14:36:43;101367.25;;;6.94;85.56
75692;BME280;64307;52.508;6.090;2023-01-10T14:39:12;101351.38;;;6.91;85.54
75692;BME280;64307;52.508;6.090;2023-01-10T14:41:42;101355.91;;;6.99;85.56
75692;BME280;64307;52.508;6.090;2023-01-10T14:44:19;101353.13;;;6.99;85.25
75692;BME280;64307;52.508;6.090;2023-01-10T14:46:48;101357.94;;;7.02;85.22
75692;BME280;64307;52.508;6.090;2023-01-10T14:49:29;101345.19;;;6.98;85.55
75692;BME280;64307;52.508;6.090;2023-01-10T14:52:18;101344.53;;;7.04;85.96